Portales, NM (88130)

8:51 AM MST on December 03, 2016 (GMT -0700)
Cannon Air Force Base | | Change Station
Active Advisory: Winter Weather Advisory

Elev 4295 ft 34.38 °N, 103.32 °W | Updated 53 minutes ago

Light Drizzle
Light Drizzle
32 °F
Feels Like 23 °F
N
12
Wind Variable Wind from NNE

Today
High -- | Low -- °F
--% Chance of Precip.
Yesterday
High -- | Low -- °F
Precip. -- in
Pressure 30.14 in
Visibility 3.0 miles
Clouds Overcast 400 ft
Windchill 23 °F
Dew Point 32 °F
Humidity 100%
Rainfall 0.05 in
Snow Depth Not available.
6:43 AM 4:43 PM
Waxing Crescent, 15% visible
METAR KCVS 031458Z 03010KT 3SM -DZ OVC004 00/00 A3012 RMK AO2A SLP206 P0000 60001 T00010001 52016 $
Pressure 30.14 in
Visibility 3.0 miles
Clouds Overcast 400 ft
Windchill 23 °F
Dew Point 32 °F
Humidity 100%
Rainfall 0.05 in
Snow Depth Not available.
6:43 AM 4:43 PM
Waxing Crescent, 15% visible
METAR KCVS 031458Z 03010KT 3SM -DZ OVC004 00/00 A3012 RMK AO2A SLP206 P0000 60001 T00010001 52016 $

10-Day Weather Forecast

Almanac

Astronomy

Dec. 03, 2016 Rise Set
Actual Time
Civil Twilight
Nautical Twilight
Astronomical Twilight
Moon
Length of Visible Light
Length of Day
Tomorrow will be .
, % of the Moon is Illuminated

Today's Extremes

State Highs State Lows

Community

WunderPhotos

Upload Photos

1,955,427 photos uploaded!

WunderBlog® & News

Nearby

Air Quality

  Air Quality AQ Index Pollutant
Not available.

Snow Depth

Station Depth Elevation

Earthquake Activity

City Distance Mag. Time & Date
Minimum magnitude displayed is 2.5.

Coastal Water Temperatures

Place Temperature

Stations

Nearby Weather Stations

Station Location Temp. Windchill Dew Point Humidity Wind Precip. Elev Updated Type
                   

Watches & Warnings

Winter Weather Advisory
Issued: 4:23 AM MST Dec. 3, 2016 – National Weather Service

... Winter Weather Advisory remains in effect until 9 am MST
Sunday...

* snow accumulations... one to four inches of snow with small
amounts of sleet and a thin layer of freezing drizzle all
possible.

* Timing... a mix of rain... snow... sleet... and freezing drizzle
possible this morning. Precipitation may occasionally turn to
rain this afternoon before transitioning back to snow or a
wintry mix this evening. Precipitation is expected to taper off
early Sunday morning.

* Winds... generally northeast to east 10 to 20 mph.

* Snow levels... snow or a wintry mix this morning may turn to rain
this afternoon... but will likely return tonight.

* Local impacts... snow and possibly ice may accumulate on
roads... resulting in hazardous driving conditions.
Visibilities will also be reduced in precipitation.

Precautionary/preparedness actions...

A Winter Weather Advisory means that periods of snow... sleet...
or freezing rain will cause travel difficulties. Be prepared for
hazardous Road conditions and reduced visibilities.